createdAt,value
2019-02-16T00:00:48.118Z,25.88
2019-02-16T00:01:52.222Z,18.15
2019-02-16T00:02:55.652Z,19.07
2019-02-16T00:03:59.111Z,22.32
2019-02-16T00:05:02.607Z,19.75
2019-02-16T00:06:06.123Z,20.77
2019-02-16T00:07:09.565Z,25.45
2019-02-16T00:08:12.977Z,16.93
2019-02-16T00:09:16.426Z,16.40
2019-02-16T00:10:19.870Z,18.10
2019-02-16T00:11:25.718Z,13.28
2019-02-16T00:12:29.156Z,12.33
2019-02-16T00:13:32.595Z,12.00
2019-02-16T00:14:36.044Z,17.37
2019-02-16T00:15:39.470Z,23.22
2019-02-16T00:16:42.900Z,17.73
2019-02-16T00:17:46.340Z,28.15
2019-02-16T00:18:49.765Z,21.82
2019-02-16T00:19:53.213Z,24.55
2019-02-16T00:21:03.709Z,23.60
2019-02-16T00:22:01.844Z,25.23
2019-02-16T00:23:05.273Z,20.02
2019-02-16T00:24:08.742Z,13.83
2019-02-16T00:25:12.282Z,15.70
2019-02-16T00:26:15.791Z,19.85
2019-02-16T00:27:19.226Z,21.57
2019-02-16T00:28:22.721Z,33.92
2019-02-16T00:29:26.153Z,20.08
2019-02-16T00:30:29.754Z,20.65
2019-02-16T00:31:33.180Z,19.73
2019-02-16T00:32:36.704Z,21.02
2019-02-16T00:33:40.125Z,19.57
2019-02-16T00:34:43.545Z,25.35
2019-02-16T00:35:47.061Z,19.87
2019-02-16T00:36:50.511Z,28.80
2019-02-16T00:37:53.938Z,20.45
2019-02-16T00:38:57.383Z,27.55
2019-02-16T00:40:00.889Z,28.52
2019-02-16T00:41:04.428Z,22.32
2019-02-16T00:42:07.877Z,29.87
2019-02-16T00:43:11.314Z,23.42
2019-02-16T00:44:14.745Z,34.08
2019-02-16T00:45:18.183Z,41.65
2019-02-16T00:46:21.643Z,47.48
2019-02-16T00:47:25.087Z,55.70
2019-02-16T00:48:28.553Z,67.45
2019-02-16T00:49:32.118Z,70.15
2019-02-16T00:50:35.556Z,66.20
2019-02-16T00:51:39.004Z,52.78
2019-02-16T00:52:42.426Z,33.83
2019-02-16T00:53:45.866Z,20.10
2019-02-16T00:54:49.308Z,19.02
2019-02-16T00:55:52.835Z,8.78
2019-02-16T00:56:56.328Z,19.80
2019-02-16T00:57:59.785Z,19.07
2019-02-16T00:59:03.219Z,13.32
2019-02-16T01:00:09.749Z,15.45
2019-02-16T01:01:13.175Z,29.57
2019-02-16T01:02:16.630Z,60.80
2019-02-16T01:03:20.153Z,51.20
2019-02-16T01:04:23.586Z,50.78
2019-02-16T01:05:27.016Z,59.75
2019-02-16T01:06:30.446Z,60.58
2019-02-16T01:07:33.892Z,62.00
2019-02-16T01:08:37.345Z,68.02
2019-02-16T01:09:40.781Z,36.58
2019-02-16T01:10:44.582Z,30.50
2019-02-16T01:11:48.018Z,28.15
2019-02-16T01:12:51.477Z,19.25
2019-02-16T01:13:54.974Z,17.37
2019-02-16T01:14:58.412Z,18.75
2019-02-16T01:16:01.832Z,12.88
2019-02-16T01:17:05.339Z,28.38
2019-02-16T01:18:09.309Z,43.75
2019-02-16T01:19:12.879Z,47.62
2019-02-16T01:20:16.314Z,37.08
2019-02-16T01:21:22.861Z,24.98
2019-02-16T01:22:24.914Z,30.65
2019-02-16T01:23:28.372Z,34.92
2019-02-16T01:24:31.837Z,27.82
2019-02-16T01:25:35.273Z,15.98
2019-02-16T01:26:38.697Z,12.68
2019-02-16T01:27:42.134Z,20.50
2019-02-16T01:28:45.582Z,19.00
2019-02-16T01:29:49.024Z,17.40
2019-02-16T01:30:52.537Z,20.75
2019-02-16T01:31:55.977Z,25.92
2019-02-16T01:32:59.410Z,21.42
2019-02-16T01:34:02.879Z,27.65
2019-02-16T01:35:07.380Z,22.65
2019-02-16T01:36:10.881Z,25.48
2019-02-16T01:37:14.324Z,23.95
2019-02-16T01:38:17.830Z,23.70
2019-02-16T01:39:21.291Z,21.20
2019-02-16T01:40:24.740Z,16.90
2019-02-16T01:41:28.160Z,21.73
2019-02-16T01:42:31.589Z,19.45
2019-02-16T01:43:35.013Z,14.07
2019-02-16T01:44:38.498Z,22.17
2019-02-16T01:45:42.149Z,16.70
2019-02-16T01:46:45.572Z,17.60
2019-02-16T01:47:50.448Z,17.45
2019-02-16T01:48:53.809Z,13.60
2019-02-16T01:49:57.248Z,12.75
2019-02-16T01:51:00.676Z,18.25
2019-02-16T01:52:04.170Z,22.30
2019-02-16T01:53:07.609Z,20.65
2019-02-16T01:54:11.046Z,15.15
2019-02-16T01:55:14.499Z,19.00
2019-02-16T01:56:17.952Z,21.33
2019-02-16T01:57:21.378Z,19.10
2019-02-16T01:58:24.820Z,17.15
2019-02-16T01:59:28.257Z,17.67
2019-02-16T02:00:31.771Z,19.52
2019-02-16T02:01:35.213Z,30.70
2019-02-16T02:02:38.650Z,24.35
2019-02-16T02:03:42.084Z,36.48
2019-02-16T02:04:45.581Z,35.30
2019-02-16T02:05:49.099Z,34.43
2019-02-16T02:06:52.547Z,45.20
2019-02-16T02:07:55.978Z,45.70
2019-02-16T02:08:59.674Z,48.52
2019-02-16T02:10:03.108Z,51.20
2019-02-16T02:11:07.302Z,74.32
2019-02-16T02:12:10.866Z,86.12
2019-02-16T02:13:14.350Z,93.15
2019-02-16T02:14:17.777Z,69.03
2019-02-16T02:15:21.287Z,78.28
2019-02-16T02:16:24.736Z,51.05
2019-02-16T02:17:28.167Z,33.20
2019-02-16T02:18:31.603Z,31.68
2019-02-16T02:19:35.121Z,30.23
2019-02-16T02:20:38.617Z,50.95
2019-02-16T02:21:42.073Z,51.98
2019-02-16T02:22:45.524Z,84.13
2019-02-16T02:23:48.965Z,100.40
2019-02-16T02:24:52.406Z,107.85
2019-02-16T02:25:55.841Z,104.00
2019-02-16T02:26:59.294Z,124.47
2019-02-16T02:28:02.827Z,161.52
2019-02-16T02:29:06.257Z,200.45
2019-02-16T02:30:10.831Z,207.62
2019-02-16T02:31:14.363Z,140.95
2019-02-16T02:32:17.871Z,71.57
2019-02-16T02:33:21.304Z,29.90
2019-02-16T02:34:24.726Z,12.58
2019-02-16T02:35:28.149Z,15.35
2019-02-16T02:36:31.577Z,22.15
2019-02-16T02:37:35.029Z,26.97
2019-02-16T02:38:38.475Z,30.82
2019-02-16T02:39:41.975Z,26.33
2019-02-16T02:40:45.406Z,28.83
2019-02-16T02:41:48.841Z,24.15
2019-02-16T02:42:52.299Z,37.95
2019-02-16T02:43:55.825Z,42.17
2019-02-16T02:44:59.266Z,51.98
2019-02-16T02:46:02.762Z,49.50
2019-02-16T02:47:06.263Z,54.48
2019-02-16T02:48:09.783Z,37.42
2019-02-16T02:49:13.244Z,38.75
2019-02-16T02:50:16.681Z,25.88
2019-02-16T02:51:20.162Z,18.32
2019-02-16T02:52:23.602Z,16.73
2019-02-16T02:53:31.154Z,18.85
2019-02-16T02:54:32.214Z,26.05
2019-02-16T02:55:35.654Z,95.62
2019-02-16T02:56:39.087Z,86.05
2019-02-16T02:57:42.534Z,77.17
2019-02-16T02:58:45.997Z,63.05
2019-02-16T02:59:49.508Z,58.15
2019-02-16T03:00:53.013Z,111.47
2019-02-16T03:01:56.446Z,110.08
2019-02-16T03:02:59.882Z,119.28
2019-02-16T03:04:03.368Z,92.88
2019-02-16T03:05:08.547Z,77.97
2019-02-16T03:06:11.975Z,28.60
2019-02-16T03:07:15.401Z,19.00
2019-02-16T03:08:18.841Z,21.90
2019-02-16T03:09:22.283Z,22.50
2019-02-16T03:10:25.725Z,21.27
2019-02-16T03:11:29.177Z,26.07
2019-02-16T03:12:32.576Z,22.37
2019-02-16T03:13:36.040Z,27.40
2019-02-16T03:14:39.544Z,47.53
2019-02-16T03:15:43.062Z,80.15
2019-02-16T03:16:46.562Z,77.75
2019-02-16T03:17:49.996Z,75.62
2019-02-16T03:18:53.477Z,45.17
2019-02-16T03:19:56.926Z,45.17
2019-02-16T03:21:00.374Z,41.75
2019-02-16T03:22:03.818Z,42.75
2019-02-16T03:23:12.470Z,54.35
2019-02-16T03:24:15.912Z,45.00
2019-02-16T03:25:19.374Z,33.08
2019-02-16T03:26:35.006Z,35.58
2019-02-16T03:27:59.587Z,19.12
2019-02-16T03:29:11.965Z,24.70
2019-02-16T03:30:30.173Z,21.30
2019-02-16T03:31:45.331Z,22.30
2019-02-16T03:33:19.953Z,61.98
2019-02-16T03:34:29.460Z,60.60
2019-02-16T03:35:41.799Z,42.62
2019-02-16T03:36:59.935Z,30.55
2019-02-16T03:38:30.119Z,22.07
2019-02-16T03:39:34.301Z,23.52
2019-02-16T03:40:37.731Z,19.25
2019-02-16T03:41:41.172Z,19.57
2019-02-16T03:42:44.607Z,49.67
2019-02-16T03:43:48.281Z,54.88
2019-02-16T03:44:51.644Z,106.17
2019-02-16T03:45:55.149Z,94.17
2019-02-16T03:46:58.610Z,88.87
2019-02-16T03:48:02.045Z,80.10
2019-02-16T03:49:05.473Z,90.65
2019-02-16T03:50:09.350Z,82.08
2019-02-16T03:51:12.772Z,81.60
2019-02-16T03:52:16.312Z,115.28
2019-02-16T03:53:19.748Z,120.35
2019-02-16T03:54:23.184Z,125.22
2019-02-16T03:55:26.692Z,131.35
2019-02-16T03:56:30.126Z,138.40
2019-02-16T03:57:33.649Z,168.20
2019-02-16T03:58:37.100Z,152.40
2019-02-16T03:59:40.540Z,140.85
2019-02-16T04:00:44.090Z,141.00
2019-02-16T04:01:47.500Z,146.65
2019-02-16T04:02:50.957Z,141.05
2019-02-16T04:03:54.475Z,149.53
2019-02-16T04:04:57.917Z,143.05
2019-02-16T04:06:01.368Z,287.38
2019-02-16T04:07:04.829Z,172.35
2019-02-16T04:08:08.282Z,150.07
2019-02-16T04:09:11.718Z,104.97
2019-02-16T04:10:15.216Z,88.33
2019-02-16T04:11:18.657Z,109.17
2019-02-16T04:12:22.179Z,110.60
2019-02-16T04:13:25.614Z,108.87
2019-02-16T04:14:29.058Z,103.65
2019-02-16T04:15:32.559Z,156.75
2019-02-16T04:16:36.033Z,136.57
2019-02-16T04:17:39.501Z,155.70
2019-02-16T04:18:42.912Z,144.45
2019-02-16T04:19:46.343Z,112.03
2019-02-16T04:20:49.791Z,124.22
2019-02-16T04:21:53.227Z,124.65
2019-02-16T04:22:56.680Z,120.85
2019-02-16T04:24:00.125Z,88.00
2019-02-16T04:25:03.697Z,74.05
2019-02-16T04:26:08.564Z,96.20
2019-02-16T04:27:11.996Z,101.78
2019-02-16T04:28:15.446Z,145.62
2019-02-16T04:29:18.892Z,136.90
2019-02-16T04:30:22.327Z,219.68
2019-02-16T04:31:25.767Z,208.40
2019-02-16T04:32:29.208Z,114.77
2019-02-16T04:33:32.660Z,90.95
2019-02-16T04:34:36.091Z,134.47
2019-02-16T04:35:39.523Z,112.50
2019-02-16T04:36:42.960Z,129.97
2019-02-16T04:37:46.392Z,89.25
2019-02-16T04:38:49.846Z,45.03
2019-02-16T04:39:53.282Z,48.15
2019-02-16T04:40:56.723Z,79.85
2019-02-16T04:42:00.159Z,129.70
2019-02-16T04:43:03.596Z,160.28
2019-02-16T04:44:07.043Z,157.22
2019-02-16T04:45:10.626Z,127.90
2019-02-16T04:46:14.065Z,136.75
2019-02-16T04:47:17.502Z,148.43
2019-02-16T04:48:20.936Z,145.55
2019-02-16T04:49:24.464Z,138.57
2019-02-16T04:50:27.935Z,172.00
2019-02-16T04:51:31.367Z,151.82
2019-02-16T04:52:35.368Z,153.27
2019-02-16T04:53:38.847Z,98.87
2019-02-16T04:54:42.307Z,69.37
2019-02-16T04:55:45.765Z,65.92
2019-02-16T04:56:49.188Z,91.92
2019-02-16T04:57:52.631Z,102.92
2019-02-16T04:58:56.063Z,86.85
2019-02-16T04:59:59.501Z,67.40
2019-02-16T05:01:03.018Z,58.42
2019-02-16T05:02:06.451Z,50.95
2019-02-16T05:03:09.889Z,37.63
2019-02-16T05:04:13.322Z,39.98
2019-02-16T05:05:16.758Z,21.48
2019-02-16T05:06:20.192Z,11.75
2019-02-16T05:07:23.622Z,15.48
2019-02-16T05:08:27.081Z,14.45
2019-02-16T05:09:30.485Z,15.72
2019-02-16T05:10:33.999Z,10.30
2019-02-16T05:11:37.441Z,14.47
2019-02-16T05:12:40.864Z,19.35
2019-02-16T05:13:44.297Z,42.05
2019-02-16T05:14:47.739Z,49.90
2019-02-16T05:15:51.189Z,51.08
2019-02-16T05:16:54.635Z,47.55
2019-02-16T05:17:58.071Z,55.67
2019-02-16T05:19:01.572Z,64.07
2019-02-16T05:20:06.648Z,59.40
2019-02-16T05:21:10.119Z,60.67
2019-02-16T05:22:13.577Z,47.83
2019-02-16T05:23:16.984Z,39.30
2019-02-16T05:24:20.439Z,35.30
2019-02-16T05:25:23.874Z,31.05
2019-02-16T05:26:27.332Z,16.55
2019-02-16T05:27:30.752Z,19.82
2019-02-16T05:28:34.244Z,15.43
2019-02-16T05:29:37.647Z,12.03
2019-02-16T05:30:41.079Z,20.45
2019-02-16T05:31:44.529Z,13.03
2019-02-16T05:32:47.960Z,18.90
2019-02-16T05:33:51.387Z,18.55
2019-02-16T05:34:54.812Z,22.77
2019-02-16T05:35:58.238Z,25.20
2019-02-16T05:37:01.689Z,29.05
2019-02-16T05:38:05.122Z,30.62
2019-02-16T05:39:08.553Z,38.15
2019-02-16T05:40:11.981Z,24.02
2019-02-16T05:41:15.434Z,31.73
2019-02-16T05:42:18.864Z,26.02
2019-02-16T05:43:22.294Z,16.75
2019-02-16T05:44:25.727Z,13.95
2019-02-16T05:45:29.233Z,10.78
2019-02-16T05:46:32.659Z,8.45
2019-02-16T05:47:36.107Z,9.95
2019-02-16T05:48:39.541Z,15.90
2019-02-16T05:49:42.975Z,14.13
2019-02-16T05:50:46.400Z,16.75
2019-02-16T05:51:49.832Z,47.40
2019-02-16T05:52:54.659Z,35.40
2019-02-16T05:53:58.241Z,31.75
2019-02-16T05:55:01.705Z,22.65
2019-02-16T05:56:05.128Z,25.80
2019-02-16T05:57:08.557Z,22.80
2019-02-16T05:58:12.006Z,19.25
2019-02-16T05:59:15.500Z,19.95
2019-02-16T06:00:20.559Z,23.52
2019-02-16T06:01:23.984Z,20.77
2019-02-16T06:02:27.423Z,33.15
2019-02-16T06:03:30.871Z,35.00
2019-02-16T06:04:34.307Z,49.90
2019-02-16T06:05:37.739Z,35.92
2019-02-16T06:06:41.169Z,23.62
2019-02-16T06:07:44.598Z,29.25
2019-02-16T06:08:48.127Z,48.75
2019-02-16T06:09:51.564Z,83.67
2019-02-16T06:10:54.997Z,78.78
2019-02-16T06:11:58.425Z,61.48
2019-02-16T06:13:02.028Z,63.83
2019-02-16T06:14:05.474Z,45.78
2019-02-16T06:15:09.616Z,41.45
2019-02-16T06:16:13.050Z,34.70
2019-02-16T06:17:16.485Z,35.50
2019-02-16T06:18:19.918Z,53.50
2019-02-16T06:19:23.471Z,56.42
2019-02-16T06:20:26.868Z,42.20
2019-02-16T06:21:30.299Z,34.05
2019-02-16T06:22:33.766Z,24.35
2019-02-16T06:23:37.197Z,26.12
2019-02-16T06:24:40.659Z,22.05
2019-02-16T06:25:44.117Z,17.65
2019-02-16T06:26:47.621Z,19.30
2019-02-16T06:27:51.096Z,11.73
2019-02-16T06:28:54.561Z,10.32
2019-02-16T06:29:58.011Z,12.65
2019-02-16T06:31:01.463Z,11.93
2019-02-16T06:32:04.904Z,10.43
2019-02-16T06:33:08.379Z,11.30
2019-02-16T06:34:11.886Z,8.65
2019-02-16T06:35:25.615Z,14.40
2019-02-16T06:36:30.921Z,9.85
2019-02-16T06:37:34.341Z,15.88
2019-02-16T06:38:37.779Z,24.95
2019-02-16T06:39:41.209Z,31.90
2019-02-16T06:40:44.658Z,21.23
2019-02-16T06:41:48.092Z,36.73
2019-02-16T06:42:51.527Z,23.25
2019-02-16T06:43:54.962Z,29.32
2019-02-16T06:44:58.391Z,49.35
2019-02-16T06:46:01.843Z,47.27
2019-02-16T06:47:05.276Z,47.85
2019-02-16T06:48:08.709Z,30.27
2019-02-16T06:49:12.205Z,13.93
2019-02-16T06:50:15.634Z,14.47
2019-02-16T06:51:19.079Z,12.15
2019-02-16T06:52:22.579Z,11.75
2019-02-16T06:53:26.029Z,10.20
2019-02-16T06:54:29.442Z,13.03
2019-02-16T06:55:34.578Z,12.13
2019-02-16T06:56:42.077Z,13.70
2019-02-16T06:57:47.139Z,16.82
2019-02-16T06:58:50.560Z,9.95
2019-02-16T06:59:53.985Z,12.35
2019-02-16T07:00:57.415Z,9.35
2019-02-16T07:02:00.862Z,14.85
2019-02-16T07:03:04.285Z,11.40
2019-02-16T07:04:07.707Z,8.50
2019-02-16T07:05:11.142Z,16.73
2019-02-16T07:06:14.569Z,13.40
2019-02-16T07:07:18.021Z,10.75
2019-02-16T07:08:21.446Z,12.68
2019-02-16T07:09:24.904Z,10.13
2019-02-16T07:10:28.346Z,13.55
2019-02-16T07:11:31.796Z,12.68
2019-02-16T07:12:35.241Z,11.00
2019-02-16T07:13:38.660Z,11.15
2019-02-16T07:14:42.080Z,9.15
2019-02-16T07:15:47.180Z,10.93
2019-02-16T07:16:52.249Z,11.12
2019-02-16T07:17:57.334Z,24.02
2019-02-16T07:19:05.148Z,12.05
2019-02-16T07:20:09.409Z,14.35
2019-02-16T07:21:12.867Z,11.60
2019-02-16T07:22:16.304Z,13.78
2019-02-16T07:23:22.396Z,21.42
2019-02-16T07:24:25.100Z,13.65
2019-02-16T07:25:28.557Z,11.80
2019-02-16T07:26:32.121Z,13.03
2019-02-16T07:27:35.660Z,8.75
2019-02-16T07:28:39.090Z,10.90
2019-02-16T07:29:42.527Z,10.05
2019-02-16T07:30:45.967Z,8.95
2019-02-16T07:31:49.379Z,10.18
2019-02-16T07:32:53.026Z,16.48
2019-02-16T07:33:56.539Z,7.20
2019-02-16T07:34:59.956Z,9.68
2019-02-16T07:36:03.461Z,8.05
2019-02-16T07:37:06.889Z,11.50
2019-02-16T07:38:10.346Z,13.98
2019-02-16T07:39:13.760Z,8.80
2019-02-16T07:40:17.189Z,10.70
2019-02-16T07:41:20.687Z,7.05
2019-02-16T07:42:24.381Z,8.73
2019-02-16T07:43:47.297Z,10.28
2019-02-16T07:44:52.372Z,7.75
2019-02-16T07:45:57.443Z,11.65
2019-02-16T07:47:14.243Z,13.20
2019-02-16T07:48:25.135Z,8.90
2019-02-16T07:49:35.970Z,9.78
2019-02-16T07:50:41.035Z,21.40
2019-02-16T07:51:58.017Z,5.58
2019-02-16T07:53:03.088Z,8.55
2019-02-16T07:54:10.886Z,12.75
2019-02-16T07:55:31.956Z,7.78
2019-02-16T07:56:37.092Z,6.92
2019-02-16T07:57:58.125Z,7.03
2019-02-16T07:59:06.140Z,5.80
2019-02-16T08:00:11.377Z,8.83
2019-02-16T08:01:32.048Z,6.08
2019-02-16T08:02:39.698Z,8.80
2019-02-16T08:03:44.749Z,8.03
2019-02-16T08:04:49.833Z,11.05
2019-02-16T08:06:06.696Z,15.85
2019-02-16T08:07:11.767Z,10.53
2019-02-16T08:08:19.506Z,10.35
2019-02-16T08:09:30.658Z,5.55
2019-02-16T08:10:35.746Z,6.58
2019-02-16T08:11:40.818Z,9.00
2019-02-16T08:12:45.875Z,7.05
2019-02-16T08:13:58.098Z,10.08
2019-02-16T08:15:03.330Z,6.33
2019-02-16T08:16:14.259Z,6.80
2019-02-16T08:17:24.789Z,9.35
2019-02-16T08:18:32.640Z,9.48
2019-02-16T08:19:53.585Z,13.25
2019-02-16T08:20:58.647Z,5.92
2019-02-16T08:22:03.715Z,9.23
2019-02-16T08:23:17.586Z,7.20
2019-02-16T08:24:28.630Z,14.43
2019-02-16T08:25:39.666Z,6.60
2019-02-16T08:26:50.245Z,9.80
2019-02-16T08:27:56.852Z,10.98
2019-02-16T08:29:13.438Z,8.63
2019-02-16T08:30:36.313Z,11.95
2019-02-16T08:31:41.399Z,10.23
2019-02-16T08:33:01.348Z,12.25
2019-02-16T08:34:15.544Z,15.80
2019-02-16T08:35:29.444Z,11.20
2019-02-16T08:36:50.515Z,9.35
2019-02-16T08:38:04.035Z,8.73
2019-02-16T08:39:09.105Z,12.88
2019-02-16T08:40:14.336Z,21.62
2019-02-16T08:41:21.845Z,14.40
2019-02-16T08:42:26.912Z,10.55
2019-02-16T08:43:34.737Z,7.58
2019-02-16T08:44:39.829Z,17.40
2019-02-16T08:45:47.628Z,17.57
2019-02-16T08:46:52.763Z,12.82
2019-02-16T08:48:12.631Z,14.00
2019-02-16T08:49:23.315Z,10.08
2019-02-16T08:50:40.368Z,9.30
2019-02-16T08:51:45.437Z,16.32
2019-02-16T08:52:53.496Z,13.08
2019-02-16T08:54:01.274Z,4.97
2019-02-16T08:55:23.172Z,7.78
2019-02-16T08:56:44.440Z,10.35
2019-02-16T08:57:52.522Z,7.97
2019-02-16T08:59:00.559Z,6.80
2019-02-16T09:00:22.423Z,9.50
2019-02-16T09:01:43.766Z,6.45
2019-02-16T09:02:48.882Z,10.48
2019-02-16T09:04:08.993Z,24.35
2019-02-16T09:05:22.768Z,15.93
2019-02-16T09:06:27.836Z,7.10
2019-02-16T09:07:35.875Z,4.05
2019-02-16T09:08:41.022Z,8.88
2019-02-16T09:09:48.912Z,10.98
2019-02-16T09:11:09.676Z,5.12
2019-02-16T09:12:29.315Z,12.18
2019-02-16T09:13:34.468Z,6.92
2019-02-16T09:14:51.308Z,12.82
2019-02-16T09:15:56.386Z,6.65
2019-02-16T09:17:04.443Z,8.25
2019-02-16T09:18:18.393Z,10.25
2019-02-16T09:19:39.168Z,7.55
2019-02-16T09:20:53.055Z,7.50
2019-02-16T09:22:01.238Z,6.03
2019-02-16T09:23:12.143Z,11.70
2019-02-16T09:24:35.057Z,5.50
2019-02-16T09:25:42.537Z,7.78
2019-02-16T09:27:05.503Z,10.20
2019-02-16T09:28:25.196Z,11.03
2019-02-16T09:29:35.702Z,4.72
2019-02-16T09:30:56.846Z,7.03
2019-02-16T09:32:04.828Z,9.13
2019-02-16T09:33:15.562Z,9.25
2019-02-16T09:34:36.641Z,9.63
2019-02-16T09:35:41.703Z,13.93
2019-02-16T09:36:52.736Z,11.03
2019-02-16T09:38:03.722Z,23.40
2019-02-16T09:39:17.646Z,32.05
2019-02-16T09:40:25.421Z,26.97
2019-02-16T09:41:36.370Z,15.05
2019-02-16T09:42:44.125Z,49.88
2019-02-16T09:44:03.763Z,13.78
2019-02-16T09:45:15.571Z,6.72
2019-02-16T09:46:23.382Z,12.90
2019-02-16T09:47:40.470Z,7.60
2019-02-16T09:48:51.569Z,16.05
2019-02-16T09:49:56.651Z,6.33
2019-02-16T09:51:01.707Z,3.25
2019-02-16T09:52:09.687Z,7.62
2019-02-16T09:53:20.502Z,17.85
2019-02-16T09:54:28.292Z,10.88
2019-02-16T09:55:39.079Z,8.05
2019-02-16T09:56:44.311Z,16.27
2019-02-16T09:57:52.180Z,6.67
2019-02-16T09:58:59.774Z,6.00
2019-02-16T10:00:16.672Z,6.80
2019-02-16T10:01:21.716Z,10.40
2019-02-16T10:02:32.679Z,14.85
2019-02-16T10:03:37.866Z,7.70
2019-02-16T10:04:54.890Z,5.00
2019-02-16T10:06:11.941Z,4.90
2019-02-16T10:07:17.013Z,12.65
2019-02-16T10:08:38.141Z,10.03
2019-02-16T10:09:48.797Z,3.02
2019-02-16T10:10:53.912Z,8.93
2019-02-16T10:11:59.013Z,19.05
2019-02-16T10:13:10.062Z,16.55
2019-02-16T10:14:15.205Z,7.83
2019-02-16T10:15:31.978Z,15.98
2019-02-16T10:16:49.002Z,15.32
2019-02-16T10:17:59.959Z,7.22
2019-02-16T10:19:05.073Z,5.20
2019-02-16T10:20:13.097Z,14.50
2019-02-16T10:21:27.241Z,7.12
2019-02-16T10:22:44.237Z,5.55
2019-02-16T10:23:49.324Z,10.53
2019-02-16T10:25:06.212Z,17.62
2019-02-16T10:26:27.297Z,21.05
2019-02-16T10:27:32.432Z,9.13
2019-02-16T10:28:37.575Z,9.00
2019-02-16T10:29:45.540Z,4.97
2019-02-16T10:31:00.648Z,3.45
2019-02-16T10:32:11.756Z,7.05
2019-02-16T10:33:22.389Z,8.88
2019-02-16T10:34:27.468Z,13.85
2019-02-16T10:35:44.395Z,6.40
2019-02-16T10:37:07.623Z,5.87
2019-02-16T10:38:12.685Z,11.50
2019-02-16T10:39:17.831Z,6.55
2019-02-16T10:40:37.930Z,10.32
2019-02-16T10:41:45.841Z,8.95
2019-02-16T10:43:02.759Z,9.43
2019-02-16T10:44:19.715Z,8.53
2019-02-16T10:45:42.878Z,5.37
2019-02-16T10:47:02.675Z,8.63
2019-02-16T10:48:07.890Z,7.67
2019-02-16T10:49:18.930Z,13.38
2019-02-16T10:50:24.393Z,22.77
2019-02-16T10:51:41.085Z,18.75
2019-02-16T10:52:51.723Z,10.80
2019-02-16T10:54:08.545Z,7.70
2019-02-16T10:55:19.491Z,3.52
2019-02-16T10:56:24.562Z,7.42
2019-02-16T10:57:29.621Z,4.75
2019-02-16T10:58:49.600Z,4.35
2019-02-16T11:00:10.737Z,7.58
2019-02-16T11:01:15.808Z,11.63
2019-02-16T11:02:20.977Z,8.53
2019-02-16T11:03:31.905Z,18.92
2019-02-16T11:04:42.973Z,10.15
2019-02-16T11:05:53.639Z,8.70
2019-02-16T11:07:10.683Z,14.68
2019-02-16T11:08:21.411Z,9.05
2019-02-16T11:09:35.070Z,20.55
2019-02-16T11:10:40.146Z,7.90
2019-02-16T11:12:01.270Z,20.48
2019-02-16T11:13:15.242Z,11.88
2019-02-16T11:14:29.208Z,10.05
2019-02-16T11:15:34.282Z,9.48
2019-02-16T11:16:42.099Z,6.67
2019-02-16T11:17:59.132Z,4.20
2019-02-16T11:19:16.179Z,5.20
2019-02-16T11:20:23.922Z,12.82
2019-02-16T11:21:34.817Z,8.20
2019-02-16T11:22:39.888Z,11.28
2019-02-16T11:23:45.498Z,13.08
2019-02-16T11:24:56.368Z,4.83
2019-02-16T11:26:10.157Z,10.55
2019-02-16T11:27:26.940Z,4.47
2019-02-16T11:28:44.015Z,8.88
2019-02-16T11:29:51.701Z,9.53
2019-02-16T11:31:11.341Z,14.25
2019-02-16T11:32:34.322Z,15.53
2019-02-16T11:33:42.008Z,4.83
2019-02-16T11:34:49.622Z,9.98
2019-02-16T11:36:00.288Z,8.25
2019-02-16T11:37:08.026Z,19.50
2019-02-16T11:38:13.096Z,8.48
2019-02-16T11:39:21.394Z,9.60
2019-02-16T11:40:26.479Z,26.45
2019-02-16T11:41:34.206Z,8.30
2019-02-16T11:42:48.388Z,8.05
2019-02-16T11:44:08.107Z,7.08
2019-02-16T11:45:13.243Z,11.00
2019-02-16T11:46:24.108Z,13.48
2019-02-16T11:47:31.931Z,10.10
2019-02-16T11:48:37.044Z,11.85
2019-02-16T11:49:44.949Z,18.32
2019-02-16T11:50:55.446Z,27.10
2019-02-16T11:52:16.474Z,12.25
2019-02-16T11:53:33.612Z,5.90
2019-02-16T11:54:45.411Z,8.45
2019-02-16T11:55:51.081Z,3.90
2019-02-16T11:56:58.924Z,8.58
2019-02-16T11:58:03.997Z,9.10
2019-02-16T11:59:27.216Z,13.35
2019-02-16T12:00:32.304Z,7.30
2019-02-16T12:01:43.205Z,3.60
2019-02-16T12:02:48.270Z,8.63
2019-02-16T12:03:59.298Z,9.05
2019-02-16T12:05:04.381Z,4.00
2019-02-16T12:06:09.478Z,6.75
2019-02-16T12:07:29.396Z,12.25
2019-02-16T12:08:43.264Z,5.90
2019-02-16T12:09:48.356Z,6.00
2019-02-16T12:11:08.354Z,13.38
2019-02-16T12:12:13.453Z,9.08
2019-02-16T12:13:33.654Z,4.35
2019-02-16T12:14:38.728Z,9.58
2019-02-16T12:15:43.832Z,7.58
2019-02-16T12:16:48.922Z,31.45
2019-02-16T12:18:09.702Z,15.18
2019-02-16T12:19:20.749Z,5.25
2019-02-16T12:20:33.354Z,12.93
2019-02-16T12:21:32.658Z,11.70
2019-02-16T12:22:43.195Z,8.45
2019-02-16T12:23:48.255Z,2.58
2019-02-16T12:25:05.115Z,7.03
2019-02-16T12:26:02.752Z,6.30
2019-02-16T12:27:13.847Z,1.30
2019-02-16T12:28:27.572Z,1.60
2019-02-16T12:29:35.153Z,11.25
2019-02-16T12:30:51.698Z,3.20
2019-02-16T12:32:11.721Z,11.73
2019-02-16T12:33:19.534Z,1.55
2019-02-16T12:34:30.709Z,9.58
2019-02-16T12:35:44.539Z,2.33
2019-02-16T12:36:53.146Z,1.40
2019-02-16T12:37:58.294Z,2.37
2019-02-16T12:39:15.108Z,1.12
2019-02-16T12:40:22.896Z,6.50
2019-02-16T12:41:36.720Z,5.10
2019-02-16T12:42:56.447Z,3.65
2019-02-16T12:44:10.517Z,43.42
2019-02-16T12:45:21.622Z,19.25
2019-02-16T12:46:26.925Z,3.27
2019-02-16T12:47:34.589Z,4.87
2019-02-16T12:48:42.320Z,3.40
2019-02-16T12:49:59.480Z,5.00
2019-02-16T12:51:04.528Z,1.40
2019-02-16T12:52:09.718Z,1.30
2019-02-16T12:53:17.602Z,1.47
2019-02-16T12:54:22.721Z,4.28
2019-02-16T12:55:43.562Z,1.92
2019-02-16T12:56:48.950Z,3.08
2019-02-16T12:57:54.047Z,2.17
2019-02-16T12:59:04.949Z,3.33
2019-02-16T13:00:12.316Z,3.05
2019-02-16T13:01:23.314Z,1.07
2019-02-16T13:02:34.208Z,4.55
2019-02-16T13:03:42.220Z,2.72
2019-02-16T13:04:47.298Z,3.80
2019-02-16T13:06:08.302Z,2.02
2019-02-16T13:07:25.346Z,4.30
2019-02-16T13:08:33.281Z,20.80
2019-02-16T13:09:44.347Z,7.35
2019-02-16T13:10:49.504Z,9.48
2019-02-16T13:11:54.567Z,2.80
2019-02-16T13:13:11.274Z,4.00
2019-02-16T13:14:16.374Z,2.15
2019-02-16T13:15:21.528Z,37.93
2019-02-16T13:16:29.068Z,4.45
2019-02-16T13:17:49.125Z,2.27
2019-02-16T13:19:09.215Z,2.90
2019-02-16T13:20:17.122Z,1.75
2019-02-16T13:21:22.204Z,4.62
2019-02-16T13:22:27.337Z,1.37
2019-02-16T13:23:32.413Z,1.45
2019-02-16T13:24:37.503Z,1.40
2019-02-16T13:25:42.577Z,6.78
2019-02-16T13:26:47.659Z,18.25
2019-02-16T13:28:08.745Z,2.15
2019-02-16T13:29:25.415Z,2.33
2019-02-16T13:30:30.523Z,2.10
2019-02-16T13:31:35.641Z,5.97
2019-02-16T13:32:40.833Z,1.12
2019-02-16T13:33:45.892Z,2.05
2019-02-16T13:34:51.077Z,1.55
2019-02-16T13:36:05.129Z,1.30
2019-02-16T13:37:10.235Z,1.77
2019-02-16T13:38:15.279Z,1.25
2019-02-16T13:39:29.113Z,1.50
2019-02-16T13:40:34.205Z,2.27
2019-02-16T13:41:39.348Z,1.40
2019-02-16T13:42:56.094Z,4.50
2019-02-16T13:44:16.070Z,2.05
2019-02-16T13:45:26.934Z,0.93
2019-02-16T13:46:47.010Z,2.40
2019-02-16T13:47:54.877Z,2.27
2019-02-16T13:49:00.016Z,0.80
2019-02-16T13:50:05.467Z,0.90
2019-02-16T13:51:10.579Z,1.17
2019-02-16T13:52:21.322Z,2.25
2019-02-16T13:53:32.094Z,3.87
2019-02-16T13:54:43.286Z,1.35
2019-02-16T13:55:48.465Z,1.45
2019-02-16T13:57:02.371Z,1.57
2019-02-16T13:58:16.229Z,2.80
2019-02-16T13:59:21.313Z,1.12
2019-02-16T14:00:29.051Z,2.17
2019-02-16T14:01:43.134Z,1.30
2019-02-16T14:02:56.753Z,3.92
2019-02-16T14:04:07.443Z,7.50
2019-02-16T14:05:12.599Z,2.27
2019-02-16T14:06:32.500Z,31.75
2019-02-16T14:07:43.253Z,7.83
2019-02-16T14:08:51.437Z,6.62
2019-02-16T14:10:01.955Z,5.55
2019-02-16T14:11:22.040Z,1.62
2019-02-16T14:12:35.587Z,5.35
2019-02-16T14:13:46.518Z,3.75
2019-02-16T14:14:51.591Z,4.15
2019-02-16T14:15:56.664Z,4.72
2019-02-16T14:17:01.753Z,9.00
2019-02-16T14:18:05.200Z,5.97
2019-02-16T14:19:08.644Z,5.03
2019-02-16T14:20:12.096Z,3.25
2019-02-16T14:21:15.520Z,6.92
2019-02-16T14:22:18.989Z,2.60
2019-02-16T14:23:22.431Z,4.30
2019-02-16T14:24:38.919Z,7.12
2019-02-16T14:25:45.750Z,1.12
2019-02-16T14:26:49.356Z,0.97
2019-02-16T14:27:54.094Z,3.72
2019-02-16T14:28:57.513Z,1.20